createdAt,value
2019-06-01T00:02:23.520Z,7.20
2019-06-01T00:04:53.441Z,7.10
2019-06-01T00:07:23.520Z,7.37
2019-06-01T00:09:53.443Z,8.15
2019-06-01T00:12:23.871Z,7.30
2019-06-01T00:14:54.066Z,7.72
2019-06-01T00:17:24.045Z,8.23
2019-06-01T00:19:54.184Z,8.30
2019-06-01T00:22:24.420Z,8.55
2019-06-01T00:24:54.560Z,8.53
2019-06-01T00:27:24.451Z,8.35
2019-06-01T00:29:54.769Z,9.43
2019-06-01T00:32:24.890Z,9.05
2019-06-01T00:34:54.755Z,9.50
2019-06-01T00:37:24.975Z,9.20
2019-06-01T00:39:54.829Z,9.48
2019-06-01T00:42:25.404Z,9.57
2019-06-01T00:44:55.670Z,9.50
2019-06-01T00:47:25.559Z,10.18
2019-06-01T00:49:55.431Z,9.78
2019-06-01T00:52:25.404Z,10.68
2019-06-01T00:54:55.310Z,10.75
2019-06-01T00:57:25.875Z,10.13
2019-06-01T00:59:56.202Z,11.08
2019-06-01T01:02:26.095Z,10.80
2019-06-01T01:05:02.409Z,10.63
2019-06-01T01:07:32.717Z,10.75
2019-06-01T01:10:02.619Z,11.00
2019-06-01T01:12:34.249Z,11.10
2019-06-01T01:15:05.051Z,11.05
2019-06-01T01:17:35.163Z,10.90
2019-06-01T01:20:05.272Z,11.63
2019-06-01T01:22:35.275Z,11.48
2019-06-01T01:25:05.458Z,11.18
2019-06-01T01:27:36.026Z,10.90
2019-06-01T01:30:06.209Z,11.78
2019-06-01T01:32:36.089Z,11.75
2019-06-01T01:35:06.127Z,11.40
2019-06-01T01:37:36.148Z,11.60
2019-06-01T01:40:06.136Z,12.05
2019-06-01T01:42:36.345Z,11.65
2019-06-01T01:45:07.433Z,11.70
2019-06-01T01:47:37.703Z,11.60
2019-06-01T01:50:08.207Z,12.23
2019-06-01T01:52:38.064Z,12.20
2019-06-01T01:55:08.058Z,12.60
2019-06-01T01:57:38.217Z,12.45
2019-06-01T02:00:09.135Z,12.10
2019-06-01T02:02:39.262Z,13.35
2019-06-01T02:05:09.896Z,13.40
2019-06-01T02:07:39.871Z,12.55
2019-06-01T02:10:10.843Z,13.30
2019-06-01T02:12:40.718Z,13.85
2019-06-01T02:15:10.888Z,15.03
2019-06-01T02:17:40.807Z,14.80
2019-06-01T02:20:10.975Z,14.38
2019-06-01T02:22:40.823Z,14.53
2019-06-01T02:25:10.875Z,14.98
2019-06-01T02:27:40.840Z,14.83
2019-06-01T02:30:12.562Z,14.63
2019-06-01T02:32:42.580Z,15.15
2019-06-01T02:35:13.350Z,16.10
2019-06-01T02:37:43.916Z,15.43
2019-06-01T02:40:14.573Z,16.55
2019-06-01T02:42:44.581Z,15.48
2019-06-01T02:45:16.964Z,15.60
2019-06-01T02:47:47.080Z,16.53
2019-06-01T02:50:18.425Z,16.80
2019-06-01T02:52:48.677Z,16.90
2019-06-01T02:55:18.950Z,16.25
2019-06-01T02:57:49.239Z,15.63
2019-06-01T03:00:40.500Z,16.70
2019-06-01T03:03:10.647Z,17.02
2019-06-01T03:05:41.146Z,16.90
2019-06-01T03:08:11.527Z,17.07
2019-06-01T03:10:41.718Z,16.73
2019-06-01T03:13:13.066Z,16.25
2019-06-01T03:15:44.804Z,17.02
2019-06-01T03:18:17.779Z,16.90
2019-06-01T03:20:50.158Z,16.57
2019-06-01T03:23:23.175Z,16.60
2019-06-01T03:25:54.804Z,17.45
2019-06-01T03:28:27.290Z,17.43
2019-06-01T03:30:57.299Z,16.42
2019-06-01T03:33:27.558Z,16.27
2019-06-01T03:35:57.608Z,16.77
2019-06-01T03:38:28.086Z,16.85
2019-06-01T03:40:58.425Z,15.80
2019-06-01T03:43:29.212Z,15.70
2019-06-01T03:46:00.425Z,14.85
2019-06-01T03:48:30.688Z,14.83
2019-06-01T03:51:01.560Z,14.70
2019-06-01T03:53:32.961Z,13.15
2019-06-01T03:56:03.250Z,12.47
2019-06-01T03:58:33.511Z,11.30
2019-06-01T04:01:03.516Z,11.50
2019-06-01T04:03:33.804Z,11.97
2019-06-01T04:06:03.888Z,12.23
2019-06-01T04:08:33.847Z,11.28
2019-06-01T04:11:03.851Z,12.85
2019-06-01T04:13:33.783Z,12.33
2019-06-01T04:16:03.827Z,10.43
2019-06-01T04:18:33.799Z,12.10
2019-06-01T04:21:04.269Z,12.25
2019-06-01T04:23:36.354Z,10.60
2019-06-01T04:26:06.625Z,10.78
2019-06-01T04:28:36.903Z,10.80
2019-06-01T04:31:07.053Z,10.20
2019-06-01T04:33:38.486Z,10.32
2019-06-01T04:36:08.987Z,11.28
2019-06-01T04:38:38.978Z,10.50
2019-06-01T04:41:09.753Z,11.20
2019-06-01T04:43:40.210Z,10.70
2019-06-01T04:46:10.358Z,11.43
2019-06-01T04:48:40.520Z,11.00
2019-06-01T04:51:11.746Z,10.90
2019-06-01T04:53:42.330Z,11.30
2019-06-01T04:56:13.101Z,10.98
2019-06-01T04:58:43.209Z,10.00
2019-06-01T05:01:13.197Z,10.40
2019-06-01T05:03:43.052Z,9.70
2019-06-01T05:06:13.453Z,9.40
2019-06-01T05:08:43.974Z,11.70
2019-06-01T05:11:15.577Z,10.50
2019-06-01T05:13:45.667Z,10.70
2019-06-01T05:16:16.661Z,10.60
2019-06-01T05:18:46.736Z,11.60
2019-06-01T05:21:17.168Z,11.90
2019-06-01T05:23:47.150Z,11.50
2019-06-01T05:26:17.439Z,11.90
2019-06-01T05:28:47.664Z,11.05
2019-06-01T05:31:24.704Z,10.98
2019-06-01T05:33:49.701Z,11.10
2019-06-01T05:36:19.823Z,11.50
2019-06-01T05:38:49.971Z,10.75
2019-06-01T05:41:20.078Z,12.07
2019-06-01T05:43:50.387Z,11.48
2019-06-01T05:46:22.289Z,11.30
2019-06-01T05:48:58.910Z,10.98
2019-06-01T05:51:29.078Z,10.85
2019-06-01T05:53:58.965Z,10.30
2019-06-01T05:56:29.075Z,10.63
2019-06-01T05:58:59.505Z,11.93
2019-06-01T06:01:30.277Z,10.78
2019-06-01T06:04:00.569Z,11.10
2019-06-01T06:06:30.507Z,11.00
2019-06-01T06:09:00.634Z,10.98
2019-06-01T06:11:30.752Z,11.95
2019-06-01T06:14:01.183Z,11.40
2019-06-01T06:16:31.782Z,11.40
2019-06-01T06:19:02.794Z,11.28
2019-06-01T06:21:35.651Z,11.18
2019-06-01T06:24:05.790Z,10.57
2019-06-01T06:26:36.602Z,10.72
2019-06-01T06:29:06.927Z,11.55
2019-06-01T06:31:36.967Z,11.12
2019-06-01T06:34:07.035Z,10.45
2019-06-01T06:36:37.127Z,10.45
2019-06-01T06:39:08.533Z,10.60
2019-06-01T06:41:38.817Z,9.80
2019-06-01T06:44:09.008Z,9.20
2019-06-01T06:46:39.141Z,9.00
2019-06-01T06:49:10.120Z,9.00
2019-06-01T06:51:40.810Z,8.50
2019-06-01T06:54:10.908Z,8.20
2019-06-01T06:56:40.959Z,8.05
2019-06-01T06:59:11.821Z,7.30
2019-06-01T07:01:42.635Z,7.80
2019-06-01T07:04:13.435Z,6.42
2019-06-01T07:06:47.193Z,8.08
2019-06-01T07:09:19.840Z,7.58
2019-06-01T07:11:49.661Z,7.50
2019-06-01T07:14:19.786Z,7.12
2019-06-01T07:16:50.002Z,6.05
2019-06-01T07:19:21.470Z,7.00
2019-06-01T07:21:51.928Z,6.77
2019-06-01T07:24:22.320Z,6.95
2019-06-01T07:26:52.563Z,6.50
2019-06-01T07:29:24.122Z,6.62
2019-06-01T07:31:55.600Z,6.72
2019-06-01T07:34:35.844Z,6.05
2019-06-01T07:36:58.363Z,5.65
2019-06-01T07:39:29.204Z,5.80
2019-06-01T07:41:59.414Z,5.75
2019-06-01T07:44:29.443Z,6.00
2019-06-01T07:47:00.043Z,5.12
2019-06-01T07:49:32.935Z,5.60
2019-06-01T07:52:13.017Z,5.20
2019-06-01T07:54:34.868Z,5.33
2019-06-01T07:57:05.228Z,4.90
2019-06-01T07:59:35.340Z,4.70
2019-06-01T08:02:05.910Z,5.22
2019-06-01T08:04:52.388Z,4.97
2019-06-01T08:07:07.751Z,5.03
2019-06-01T08:09:37.885Z,5.00
2019-06-01T08:12:08.312Z,5.10
2019-06-01T08:14:38.803Z,4.72
2019-06-01T08:17:08.928Z,5.10
2019-06-01T08:19:39.123Z,4.92
2019-06-01T08:22:09.230Z,4.60
2019-06-01T08:24:39.572Z,4.80
2019-06-01T08:27:09.643Z,4.55
2019-06-01T08:29:39.618Z,4.10
2019-06-01T08:32:10.204Z,4.95
2019-06-01T08:34:40.125Z,5.05
2019-06-01T08:37:10.432Z,4.62
2019-06-01T08:39:40.464Z,5.40
2019-06-01T08:42:10.655Z,4.50
2019-06-01T08:44:40.679Z,4.40
2019-06-01T08:47:12.173Z,4.40
2019-06-01T08:49:42.581Z,4.10
2019-06-01T08:52:12.964Z,4.40
2019-06-01T08:54:43.203Z,4.33
2019-06-01T08:57:13.315Z,3.33
2019-06-01T08:59:43.408Z,4.25
2019-06-01T09:02:14.034Z,4.10
2019-06-01T09:04:44.473Z,4.25
2019-06-01T09:07:14.700Z,4.28
2019-06-01T09:09:45.252Z,3.80
2019-06-01T09:12:15.817Z,3.72
2019-06-01T09:14:48.646Z,3.75
2019-06-01T09:17:19.040Z,3.75
2019-06-01T09:19:49.263Z,4.23
2019-06-01T09:22:19.438Z,3.47
2019-06-01T09:24:53.296Z,4.03
2019-06-01T09:27:25.615Z,3.60
2019-06-01T09:29:56.330Z,3.27
2019-06-01T09:32:37.209Z,3.30
2019-06-01T09:35:18.843Z,3.67
2019-06-01T10:53:20.412Z,2.62
2019-06-01T11:06:36.251Z,2.90
2019-06-01T16:08:31.036Z,5.40
2019-06-01T18:44:52.096Z,4.00
2019-06-01T18:52:50.656Z,4.25
2019-06-01T18:54:47.587Z,4.72
2019-06-01T18:57:37.799Z,4.60
2019-06-01T19:00:21.162Z,4.80
2019-06-01T19:02:51.882Z,4.90
2019-06-01T19:09:58.960Z,5.50
2019-06-01T19:16:28.960Z,5.80
2019-06-01T19:19:38.046Z,6.50
2019-06-01T19:22:29.123Z,6.33
2019-06-01T19:36:13.059Z,7.33
2019-06-01T19:38:58.252Z,7.50
2019-06-01T19:41:52.112Z,7.72
2019-06-01T19:44:36.742Z,7.95
2019-06-01T19:47:05.713Z,8.88
2019-06-01T19:49:46.251Z,9.00
2019-06-01T19:52:28.792Z,8.05
2019-06-01T19:55:17.044Z,7.90
2019-06-01T19:58:03.611Z,8.43
2019-06-01T20:03:58.607Z,8.35
2019-06-01T20:06:48.951Z,8.40
2019-06-01T20:10:27.407Z,8.33
2019-06-01T20:13:23.709Z,8.65
2019-06-01T20:16:39.247Z,8.60
2019-06-01T20:19:48.621Z,8.00
2019-06-01T20:22:34.002Z,6.37
2019-06-01T20:25:06.613Z,6.87
2019-06-01T20:28:50.183Z,7.17
2019-06-01T20:31:32.943Z,6.77
2019-06-01T20:34:15.901Z,7.25
2019-06-01T20:45:24.334Z,7.75
2019-06-01T21:00:58.157Z,7.80
2019-06-01T21:13:08.194Z,10.28
2019-06-01T21:21:54.197Z,47.08
2019-06-01T21:29:08.474Z,70.45
2019-06-01T21:31:41.760Z,64.80
2019-06-01T21:34:12.039Z,67.08
2019-06-01T21:36:54.050Z,80.75
2019-06-01T21:40:06.656Z,78.30
2019-06-01T21:43:03.224Z,57.40
2019-06-01T21:45:54.756Z,37.13
2019-06-01T21:56:09.939Z,9.43
2019-06-01T22:02:35.823Z,8.70
2019-06-01T22:23:26.623Z,11.12
2019-06-01T22:26:33.934Z,11.03
2019-06-01T22:41:36.392Z,9.30
2019-06-01T22:49:24.714Z,11.20
2019-06-01T22:57:00.493Z,9.15
2019-06-01T23:07:05.237Z,10.00
2019-06-01T23:10:29.972Z,10.00
2019-06-01T23:14:01.618Z,10.15
2019-06-01T23:20:53.251Z,10.18
2019-06-01T23:23:50.617Z,9.80
2019-06-01T23:33:28.784Z,10.78
2019-06-01T23:40:07.529Z,10.90
2019-06-01T23:43:12.524Z,11.60
2019-06-01T23:46:38.666Z,10.93
2019-06-01T23:49:56.672Z,12.90
2019-06-01T23:52:36.512Z,11.60
2019-06-01T23:55:45.143Z,11.78
2019-06-01T23:58:58.273Z,11.65
